CheckWX is a tool to help pilots better visualize weather data.  It is not intended as a substitute for an official pre-flight weather briefing.

02:05:17 UTC

PACV METAR
Merle K (Mudhole) Smith Airport
Cordova, Alaska, USA
Current

12 mins ago

PACV 190153Z 09007KT 10SM FEW150 20/M03 A2991 RMK AO2 SLP127 T02001028
Observed
Aug-19 @ 01:53 UTC
Wind
  • 090° at 7 KTS
Visibility
10 SM
Flight Rules
VFR
Cloud Levels
  • Few at 15,000' AGL
Temperature
20°C / 68°F
Dewpoint
-3°C / 27°F
Humidity
21%
Altimeter
29.91" Hg
Pressure
1012.92 hPa
Previous

1 hour ago

PACV 190053Z 01007G16KT 10SM FEW150 20/M03 A2991 RMK AO2 SLP129 T02001033
Observed
Aug-19 @ 00:53 UTC
Wind
  • 010° at 7 KTS
  • Gusting to 16 KTS
Visibility
10 SM
Flight Rules
VFR
Cloud Levels
  • Few at 15,000' AGL
Temperature
20°C / 68°F
Dewpoint
-3°C / 27°F
Humidity
21%
Altimeter
29.91" Hg
Pressure
1012.92 hPa
Previous

2 hours ago

PACV 182353Z 03008G15KT 10SM FEW150 SCT200 19/M04 A2992 RMK AO2 SLP133 T01941039 10200 20172 58003
Observed
Aug-18 @ 23:53 UTC
Wind
  • 030° at 8 KTS
  • Gusting to 15 KTS
Visibility
10 SM
Flight Rules
VFR
Cloud Levels
  • Few at 15,000' AGL
  • Scattered at 20,000' AGL
Temperature
19°C / 66°F
Dewpoint
-4°C / 25°F
Humidity
21%
Altimeter
29.92" Hg
Pressure
1013.22 hPa